sensor_id;sensor_type;location;lat;lon;timestamp;P1;durP1;ratioP1;P2;durP2;ratioP2
2390;SDS011;22957;50.824;4.360;2023-04-03T00:00:50;8.00;;;5.73;;
2390;SDS011;22957;50.824;4.360;2023-04-03T00:03:17;10.33;;;4.90;;
2390;SDS011;22957;50.824;4.360;2023-04-03T00:05:44;7.07;;;5.00;;
2390;SDS011;22957;50.824;4.360;2023-04-03T00:08:10;8.53;;;4.67;;
2390;SDS011;22957;50.824;4.360;2023-04-03T00:10:36;11.20;;;5.33;;
2390;SDS011;22957;50.824;4.360;2023-04-03T00:13:03;8.00;;;5.50;;
2390;SDS011;22957;50.824;4.360;2023-04-03T00:15:29;9.30;;;5.17;;
2390;SDS011;22957;50.824;4.360;2023-04-03T00:17:55;9.87;;;6.00;;
2390;SDS011;22957;50.824;4.360;2023-04-03T00:20:22;8.10;;;4.90;;
2390;SDS011;22957;50.824;4.360;2023-04-03T00:22:47;9.57;;;5.37;;
2390;SDS011;22957;50.824;4.360;2023-04-03T00:25:13;6.93;;;4.60;;
2390;SDS011;22957;50.824;4.360;2023-04-03T00:27:39;8.20;;;5.80;;
2390;SDS011;22957;50.824;4.360;2023-04-03T00:30:07;9.73;;;4.97;;
2390;SDS011;22957;50.824;4.360;2023-04-03T00:32:35;9.03;;;5.23;;
2390;SDS011;22957;50.824;4.360;2023-04-03T00:35:01;9.20;;;4.27;;
2390;SDS011;22957;50.824;4.360;2023-04-03T00:37:27;5.47;;;4.33;;
2390;SDS011;22957;50.824;4.360;2023-04-03T00:39:54;9.27;;;5.10;;
2390;SDS011;22957;50.824;4.360;2023-04-03T00:42:20;8.07;;;5.10;;
2390;SDS011;22957;50.824;4.360;2023-04-03T00:47:15;9.20;;;5.07;;
2390;SDS011;22957;50.824;4.360;2023-04-03T00:49:43;10.37;;;4.67;;
2390;SDS011;22957;50.824;4.360;2023-04-03T00:52:11;8.50;;;4.73;;
2390;SDS011;22957;50.824;4.360;2023-04-03T00:54:41;10.40;;;4.50;;
2390;SDS011;22957;50.824;4.360;2023-04-03T00:57:08;8.67;;;4.80;;
2390;SDS011;22957;50.824;4.360;2023-04-03T00:59:36;7.40;;;4.50;;
2390;SDS011;22957;50.824;4.360;2023-04-03T01:02:06;13.27;;;5.60;;
2390;SDS011;22957;50.824;4.360;2023-04-03T01:07:01;7.30;;;4.20;;
2390;SDS011;22957;50.824;4.360;2023-04-03T01:09:35;5.43;;;4.40;;
2390;SDS011;22957;50.824;4.360;2023-04-03T01:12:18;5.87;;;4.23;;
2390;SDS011;22957;50.824;4.360;2023-04-03T01:14:59;8.63;;;3.93;;
2390;SDS011;22957;50.824;4.360;2023-04-03T01:17:36;10.03;;;4.57;;
2390;SDS011;22957;50.824;4.360;2023-04-03T01:20:15;10.97;;;4.63;;
2390;SDS011;22957;50.824;4.360;2023-04-03T01:23:17;6.20;;;3.83;;
2390;SDS011;22957;50.824;4.360;2023-04-03T01:26:02;7.30;;;4.80;;
2390;SDS011;22957;50.824;4.360;2023-04-03T01:28:29;7.73;;;4.83;;
2390;SDS011;22957;50.824;4.360;2023-04-03T01:33:43;5.73;;;4.83;;
2390;SDS011;22957;50.824;4.360;2023-04-03T01:36:10;4.97;;;3.90;;
2390;SDS011;22957;50.824;4.360;2023-04-03T01:38:40;4.93;;;4.13;;
2390;SDS011;22957;50.824;4.360;2023-04-03T01:41:06;10.30;;;5.23;;
2390;SDS011;22957;50.824;4.360;2023-04-03T01:43:34;7.73;;;3.97;;
2390;SDS011;22957;50.824;4.360;2023-04-03T01:46:00;7.03;;;5.00;;
2390;SDS011;22957;50.824;4.360;2023-04-03T01:48:26;6.83;;;5.13;;
2390;SDS011;22957;50.824;4.360;2023-04-03T01:50:51;9.80;;;5.33;;
2390;SDS011;22957;50.824;4.360;2023-04-03T01:53:17;10.17;;;5.00;;
2390;SDS011;22957;50.824;4.360;2023-04-03T01:55:44;7.67;;;4.90;;
2390;SDS011;22957;50.824;4.360;2023-04-03T01:58:10;9.77;;;4.90;;
2390;SDS011;22957;50.824;4.360;2023-04-03T02:00:37;5.80;;;3.93;;
2390;SDS011;22957;50.824;4.360;2023-04-03T02:03:03;7.50;;;5.00;;
2390;SDS011;22957;50.824;4.360;2023-04-03T02:05:28;8.17;;;4.73;;
2390;SDS011;22957;50.824;4.360;2023-04-03T02:07:56;6.80;;;5.03;;
2390;SDS011;22957;50.824;4.360;2023-04-03T02:10:22;9.03;;;5.30;;
2390;SDS011;22957;50.824;4.360;2023-04-03T02:12:49;5.53;;;4.30;;
2390;SDS011;22957;50.824;4.360;2023-04-03T02:15:16;5.03;;;3.90;;
2390;SDS011;22957;50.824;4.360;2023-04-03T02:17:42;5.40;;;4.30;;
2390;SDS011;22957;50.824;4.360;2023-04-03T02:20:08;6.30;;;4.10;;
2390;SDS011;22957;50.824;4.360;2023-04-03T02:22:34;7.60;;;4.80;;
2390;SDS011;22957;50.824;4.360;2023-04-03T02:24:59;6.80;;;4.30;;
2390;SDS011;22957;50.824;4.360;2023-04-03T02:27:25;7.73;;;3.93;;
2390;SDS011;22957;50.824;4.360;2023-04-03T02:29:51;6.43;;;4.60;;
2390;SDS011;22957;50.824;4.360;2023-04-03T02:32:17;5.50;;;4.30;;
2390;SDS011;22957;50.824;4.360;2023-04-03T02:34:43;10.00;;;3.80;;
2390;SDS011;22957;50.824;4.360;2023-04-03T02:37:08;4.70;;;4.00;;
2390;SDS011;22957;50.824;4.360;2023-04-03T02:39:34;9.03;;;4.50;;
2390;SDS011;22957;50.824;4.360;2023-04-03T02:42:00;5.77;;;3.87;;
2390;SDS011;22957;50.824;4.360;2023-04-03T02:44:25;9.17;;;5.40;;
2390;SDS011;22957;50.824;4.360;2023-04-03T02:46:51;10.97;;;4.80;;
2390;SDS011;22957;50.824;4.360;2023-04-03T02:49:16;8.97;;;5.27;;
2390;SDS011;22957;50.824;4.360;2023-04-03T02:51:42;11.93;;;5.50;;
2390;SDS011;22957;50.824;4.360;2023-04-03T02:54:08;7.30;;;5.00;;
2390;SDS011;22957;50.824;4.360;2023-04-03T02:56:34;8.30;;;5.40;;
2390;SDS011;22957;50.824;4.360;2023-04-03T02:59:00;10.70;;;5.53;;
2390;SDS011;22957;50.824;4.360;2023-04-03T03:01:25;12.07;;;4.93;;
2390;SDS011;22957;50.824;4.360;2023-04-03T03:03:53;14.23;;;5.87;;
2390;SDS011;22957;50.824;4.360;2023-04-03T03:06:19;11.33;;;4.57;;
2390;SDS011;22957;50.824;4.360;2023-04-03T03:08:45;7.10;;;4.50;;
2390;SDS011;22957;50.824;4.360;2023-04-03T03:11:10;7.20;;;5.00;;
2390;SDS011;22957;50.824;4.360;2023-04-03T03:13:36;6.60;;;5.13;;
2390;SDS011;22957;50.824;4.360;2023-04-03T03:16:02;6.23;;;4.80;;
2390;SDS011;22957;50.824;4.360;2023-04-03T03:18:28;10.50;;;5.67;;
2390;SDS011;22957;50.824;4.360;2023-04-03T03:20:55;8.57;;;4.37;;
2390;SDS011;22957;50.824;4.360;2023-04-03T03:23:22;10.30;;;4.90;;
2390;SDS011;22957;50.824;4.360;2023-04-03T03:25:54;5.50;;;5.00;;
2390;SDS011;22957;50.824;4.360;2023-04-03T03:28:25;9.23;;;4.73;;
2390;SDS011;22957;50.824;4.360;2023-04-03T03:30:50;7.20;;;4.67;;
2390;SDS011;22957;50.824;4.360;2023-04-03T03:33:16;10.63;;;4.80;;
2390;SDS011;22957;50.824;4.360;2023-04-03T03:35:43;9.77;;;5.00;;
2390;SDS011;22957;50.824;4.360;2023-04-03T03:38:09;6.13;;;4.93;;
2390;SDS011;22957;50.824;4.360;2023-04-03T03:40:35;6.47;;;4.50;;
2390;SDS011;22957;50.824;4.360;2023-04-03T03:43:02;8.60;;;5.03;;
2390;SDS011;22957;50.824;4.360;2023-04-03T03:45:28;7.60;;;4.70;;
2390;SDS011;22957;50.824;4.360;2023-04-03T03:47:53;4.87;;;4.17;;
2390;SDS011;22957;50.824;4.360;2023-04-03T03:50:19;10.10;;;7.13;;
2390;SDS011;22957;50.824;4.360;2023-04-03T03:52:45;9.10;;;5.77;;
2390;SDS011;22957;50.824;4.360;2023-04-03T03:55:11;5.70;;;5.13;;
2390;SDS011;22957;50.824;4.360;2023-04-03T03:57:36;6.70;;;5.27;;
2390;SDS011;22957;50.824;4.360;2023-04-03T04:00:02;9.07;;;5.40;;
2390;SDS011;22957;50.824;4.360;2023-04-03T04:02:29;5.97;;;5.03;;
2390;SDS011;22957;50.824;4.360;2023-04-03T04:04:55;8.20;;;6.07;;
2390;SDS011;22957;50.824;4.360;2023-04-03T04:07:21;8.17;;;5.23;;
2390;SDS011;22957;50.824;4.360;2023-04-03T04:09:46;6.93;;;5.00;;
2390;SDS011;22957;50.824;4.360;2023-04-03T04:12:13;12.27;;;5.93;;
2390;SDS011;22957;50.824;4.360;2023-04-03T04:14:38;8.00;;;5.67;;
2390;SDS011;22957;50.824;4.360;2023-04-03T04:17:05;6.40;;;4.47;;
2390;SDS011;22957;50.824;4.360;2023-04-03T04:19:30;13.47;;;6.00;;
2390;SDS011;22957;50.824;4.360;2023-04-03T04:21:56;7.60;;;5.10;;
2390;SDS011;22957;50.824;4.360;2023-04-03T04:24:23;8.50;;;5.30;;
2390;SDS011;22957;50.824;4.360;2023-04-03T04:26:49;6.67;;;5.37;;
2390;SDS011;22957;50.824;4.360;2023-04-03T04:29:15;9.50;;;6.40;;
2390;SDS011;22957;50.824;4.360;2023-04-03T04:31:40;7.13;;;5.63;;
2390;SDS011;22957;50.824;4.360;2023-04-03T04:34:06;10.37;;;5.40;;
2390;SDS011;22957;50.824;4.360;2023-04-03T04:36:31;6.53;;;5.23;;
2390;SDS011;22957;50.824;4.360;2023-04-03T04:38:57;8.27;;;5.53;;
2390;SDS011;22957;50.824;4.360;2023-04-03T04:41:23;7.33;;;6.13;;
2390;SDS011;22957;50.824;4.360;2023-04-03T04:43:49;8.10;;;6.40;;
2390;SDS011;22957;50.824;4.360;2023-04-03T04:46:15;7.80;;;4.60;;
2390;SDS011;22957;50.824;4.360;2023-04-03T04:48:41;7.73;;;5.77;;
2390;SDS011;22957;50.824;4.360;2023-04-03T04:51:07;8.97;;;5.30;;
2390;SDS011;22957;50.824;4.360;2023-04-03T04:53:33;7.53;;;5.07;;
2390;SDS011;22957;50.824;4.360;2023-04-03T04:55:58;8.77;;;5.53;;
2390;SDS011;22957;50.824;4.360;2023-04-03T04:58:24;7.90;;;6.20;;
2390;SDS011;22957;50.824;4.360;2023-04-03T05:00:57;8.37;;;5.77;;
2390;SDS011;22957;50.824;4.360;2023-04-03T05:03:25;7.77;;;5.10;;
2390;SDS011;22957;50.824;4.360;2023-04-03T05:05:50;10.13;;;5.90;;
2390;SDS011;22957;50.824;4.360;2023-04-03T05:08:16;9.30;;;5.77;;
2390;SDS011;22957;50.824;4.360;2023-04-03T05:10:41;8.90;;;5.70;;
2390;SDS011;22957;50.824;4.360;2023-04-03T05:13:07;6.97;;;5.20;;
2390;SDS011;22957;50.824;4.360;2023-04-03T05:15:33;6.33;;;5.33;;
2390;SDS011;22957;50.824;4.360;2023-04-03T05:17:59;6.83;;;5.63;;
2390;SDS011;22957;50.824;4.360;2023-04-03T05:20:25;13.10;;;7.63;;
2390;SDS011;22957;50.824;4.360;2023-04-03T05:22:51;8.10;;;6.40;;
2390;SDS011;22957;50.824;4.360;2023-04-03T05:25:17;8.40;;;6.13;;
2390;SDS011;22957;50.824;4.360;2023-04-03T05:27:42;13.07;;;7.10;;
2390;SDS011;22957;50.824;4.360;2023-04-03T05:30:08;7.50;;;5.97;;
2390;SDS011;22957;50.824;4.360;2023-04-03T05:32:34;12.30;;;7.40;;
2390;SDS011;22957;50.824;4.360;2023-04-03T05:34:59;9.40;;;6.30;;
2390;SDS011;22957;50.824;4.360;2023-04-03T05:37:25;8.70;;;6.97;;
2390;SDS011;22957;50.824;4.360;2023-04-03T05:39:51;11.63;;;7.03;;
2390;SDS011;22957;50.824;4.360;2023-04-03T05:42:16;6.70;;;5.60;;
2390;SDS011;22957;50.824;4.360;2023-04-03T05:44:42;10.00;;;6.13;;
2390;SDS011;22957;50.824;4.360;2023-04-03T05:47:08;9.00;;;5.73;;
2390;SDS011;22957;50.824;4.360;2023-04-03T05:49:34;6.67;;;5.90;;
2390;SDS011;22957;50.824;4.360;2023-04-03T05:52:00;9.13;;;5.90;;
2390;SDS011;22957;50.824;4.360;2023-04-03T05:54:28;9.30;;;6.50;;
2390;SDS011;22957;50.824;4.360;2023-04-03T05:56:55;9.07;;;6.20;;
2390;SDS011;22957;50.824;4.360;2023-04-03T05:59:20;10.77;;;7.13;;
2390;SDS011;22957;50.824;4.360;2023-04-03T06:01:46;9.67;;;6.20;;
2390;SDS011;22957;50.824;4.360;2023-04-03T06:04:13;8.43;;;6.60;;
2390;SDS011;22957;50.824;4.360;2023-04-03T06:06:48;11.90;;;6.57;;
2390;SDS011;22957;50.824;4.360;2023-04-03T06:09:19;8.20;;;6.87;;
2390;SDS011;22957;50.824;4.360;2023-04-03T06:11:46;10.07;;;6.00;;
2390;SDS011;22957;50.824;4.360;2023-04-03T06:14:12;8.73;;;6.30;;
2390;SDS011;22957;50.824;4.360;2023-04-03T06:16:38;10.43;;;6.40;;
2390;SDS011;22957;50.824;4.360;2023-04-03T06:19:04;10.47;;;6.30;;
2390;SDS011;22957;50.824;4.360;2023-04-03T06:21:31;6.67;;;5.23;;
2390;SDS011;22957;50.824;4.360;2023-04-03T06:23:57;10.83;;;6.30;;
2390;SDS011;22957;50.824;4.360;2023-04-03T06:26:23;16.47;;;8.10;;
2390;SDS011;22957;50.824;4.360;2023-04-03T06:28:48;6.43;;;5.17;;
2390;SDS011;22957;50.824;4.360;2023-04-03T06:31:14;8.30;;;5.40;;
2390;SDS011;22957;50.824;4.360;2023-04-03T06:33:40;7.47;;;4.93;;
2390;SDS011;22957;50.824;4.360;2023-04-03T06:36:06;16.53;;;6.83;;
2390;SDS011;22957;50.824;4.360;2023-04-03T06:38:32;7.90;;;6.00;;
2390;SDS011;22957;50.824;4.360;2023-04-03T06:41:00;12.70;;;7.87;;
2390;SDS011;22957;50.824;4.360;2023-04-03T06:43:26;8.50;;;7.40;;
2390;SDS011;22957;50.824;4.360;2023-04-03T06:45:51;11.23;;;6.53;;
2390;SDS011;22957;50.824;4.360;2023-04-03T06:48:17;9.33;;;7.27;;
2390;SDS011;22957;50.824;4.360;2023-04-03T06:50:46;10.23;;;6.63;;
2390;SDS011;22957;50.824;4.360;2023-04-03T06:53:11;9.90;;;7.40;;
2390;SDS011;22957;50.824;4.360;2023-04-03T06:55:37;10.30;;;6.80;;
2390;SDS011;22957;50.824;4.360;2023-04-03T06:58:03;13.00;;;6.20;;
2390;SDS011;22957;50.824;4.360;2023-04-03T07:00:29;12.53;;;6.00;;
2390;SDS011;22957;50.824;4.360;2023-04-03T07:02:55;12.57;;;6.30;;
2390;SDS011;22957;50.824;4.360;2023-04-03T07:05:22;16.93;;;7.13;;
2390;SDS011;22957;50.824;4.360;2023-04-03T07:07:48;10.20;;;7.20;;
2390;SDS011;22957;50.824;4.360;2023-04-03T07:10:15;10.10;;;6.53;;
2390;SDS011;22957;50.824;4.360;2023-04-03T07:12:41;20.63;;;7.10;;
2390;SDS011;22957;50.824;4.360;2023-04-03T07:15:07;8.40;;;7.60;;
2390;SDS011;22957;50.824;4.360;2023-04-03T07:17:34;10.00;;;6.23;;
2390;SDS011;22957;50.824;4.360;2023-04-03T07:20:00;9.57;;;6.00;;
2390;SDS011;22957;50.824;4.360;2023-04-03T07:22:28;8.87;;;7.20;;
2390;SDS011;22957;50.824;4.360;2023-04-03T07:24:53;8.67;;;6.73;;
2390;SDS011;22957;50.824;4.360;2023-04-03T07:27:23;11.30;;;7.47;;
2390;SDS011;22957;50.824;4.360;2023-04-03T07:29:50;11.07;;;6.37;;
2390;SDS011;22957;50.824;4.360;2023-04-03T07:32:17;11.57;;;7.60;;
2390;SDS011;22957;50.824;4.360;2023-04-03T07:34:43;8.33;;;7.30;;
2390;SDS011;22957;50.824;4.360;2023-04-03T07:37:09;10.13;;;6.27;;
2390;SDS011;22957;50.824;4.360;2023-04-03T07:39:35;9.43;;;5.77;;
2390;SDS011;22957;50.824;4.360;2023-04-03T07:42:01;11.03;;;6.40;;
2390;SDS011;22957;50.824;4.360;2023-04-03T07:44:30;8.10;;;6.20;;
2390;SDS011;22957;50.824;4.360;2023-04-03T07:46:55;11.40;;;7.30;;
2390;SDS011;22957;50.824;4.360;2023-04-03T07:49:21;8.90;;;7.40;;
2390;SDS011;22957;50.824;4.360;2023-04-03T07:51:51;10.77;;;7.43;;
2390;SDS011;22957;50.824;4.360;2023-04-03T07:54:17;10.27;;;7.00;;
2390;SDS011;22957;50.824;4.360;2023-04-03T07:56:43;12.37;;;6.50;;
2390;SDS011;22957;50.824;4.360;2023-04-03T07:59:09;9.87;;;7.63;;
2390;SDS011;22957;50.824;4.360;2023-04-03T08:01:36;9.97;;;7.10;;
2390;SDS011;22957;50.824;4.360;2023-04-03T08:04:02;9.87;;;7.33;;
2390;SDS011;22957;50.824;4.360;2023-04-03T08:06:27;11.10;;;6.27;;
2390;SDS011;22957;50.824;4.360;2023-04-03T08:08:55;8.23;;;6.50;;
2390;SDS011;22957;50.824;4.360;2023-04-03T08:11:20;10.67;;;5.83;;
2390;SDS011;22957;50.824;4.360;2023-04-03T08:13:47;9.00;;;5.97;;
2390;SDS011;22957;50.824;4.360;2023-04-03T08:16:16;8.47;;;6.23;;
2390;SDS011;22957;50.824;4.360;2023-04-03T08:18:45;7.80;;;5.20;;
2390;SDS011;22957;50.824;4.360;2023-04-03T08:21:11;6.13;;;4.70;;
2390;SDS011;22957;50.824;4.360;2023-04-03T08:23:38;8.60;;;5.53;;
2390;SDS011;22957;50.824;4.360;2023-04-03T08:26:22;8.37;;;6.03;;
2390;SDS011;22957;50.824;4.360;2023-04-03T08:28:48;10.63;;;6.60;;
2390;SDS011;22957;50.824;4.360;2023-04-03T08:31:16;12.87;;;6.00;;
2390;SDS011;22957;50.824;4.360;2023-04-03T08:33:43;7.37;;;5.87;;
2390;SDS011;22957;50.824;4.360;2023-04-03T08:36:20;7.80;;;5.20;;
2390;SDS011;22957;50.824;4.360;2023-04-03T08:38:51;9.30;;;5.50;;
2390;SDS011;22957;50.824;4.360;2023-04-03T08:44:13;9.50;;;6.43;;
2390;SDS011;22957;50.824;4.360;2023-04-03T08:49:26;7.80;;;4.73;;
2390;SDS011;22957;50.824;4.360;2023-04-03T08:51:59;8.77;;;5.00;;
2390;SDS011;22957;50.824;4.360;2023-04-03T08:54:48;11.40;;;5.40;;
2390;SDS011;22957;50.824;4.360;2023-04-03T08:57:30;9.33;;;5.50;;
2390;SDS011;22957;50.824;4.360;2023-04-03T09:00:03;8.23;;;5.60;;
2390;SDS011;22957;50.824;4.360;2023-04-03T09:02:41;6.23;;;5.63;;
2390;SDS011;22957;50.824;4.360;2023-04-03T09:05:15;6.13;;;4.73;;
2390;SDS011;22957;50.824;4.360;2023-04-03T09:08:00;12.97;;;4.90;;
2390;SDS011;22957;50.824;4.360;2023-04-03T09:10:32;8.77;;;5.20;;
2390;SDS011;22957;50.824;4.360;2023-04-03T09:13:06;10.50;;;4.50;;
2390;SDS011;22957;50.824;4.360;2023-04-03T09:15:53;9.57;;;6.10;;
2390;SDS011;22957;50.824;4.360;2023-04-03T09:18:23;5.57;;;3.70;;
2390;SDS011;22957;50.824;4.360;2023-04-03T09:23:58;15.90;;;4.87;;
2390;SDS011;22957;50.824;4.360;2023-04-03T09:26:28;11.17;;;3.33;;
2390;SDS011;22957;50.824;4.360;2023-04-03T09:29:01;5.80;;;3.77;;
2390;SDS011;22957;50.824;4.360;2023-04-03T09:31:38;4.93;;;3.00;;
2390;SDS011;22957;50.824;4.360;2023-04-03T09:34:10;6.20;;;3.10;;
2390;SDS011;22957;50.824;4.360;2023-04-03T09:36:50;5.17;;;2.90;;
2390;SDS011;22957;50.824;4.360;2023-04-03T09:39:21;5.20;;;3.07;;
2390;SDS011;22957;50.824;4.360;2023-04-03T09:42:05;6.20;;;3.30;;
2390;SDS011;22957;50.824;4.360;2023-04-03T09:44:41;4.40;;;2.73;;
2390;SDS011;22957;50.824;4.360;2023-04-03T09:47:25;4.70;;;2.63;;
2390;SDS011;22957;50.824;4.360;2023-04-03T09:49:52;8.63;;;3.20;;
2390;SDS011;22957;50.824;4.360;2023-04-03T09:52:44;6.13;;;2.10;;
2390;SDS011;22957;50.824;4.360;2023-04-03T09:57:51;4.50;;;2.23;;
2390;SDS011;22957;50.824;4.360;2023-04-03T10:02:51;11.77;;;2.90;;
2390;SDS011;22957;50.824;4.360;2023-04-03T10:05:32;14.67;;;3.00;;
2390;SDS011;22957;50.824;4.360;2023-04-03T10:08:08;6.80;;;2.40;;
2390;SDS011;22957;50.824;4.360;2023-04-03T10:10:36;5.13;;;2.17;;
2390;SDS011;22957;50.824;4.360;2023-04-03T10:13:06;4.60;;;1.63;;
2390;SDS011;22957;50.824;4.360;2023-04-03T10:15:39;9.50;;;2.67;;
2390;SDS011;22957;50.824;4.360;2023-04-03T10:18:29;5.60;;;2.57;;
2390;SDS011;22957;50.824;4.360;2023-04-03T10:32:02;4.10;;;2.40;;
2390;SDS011;22957;50.824;4.360;2023-04-03T10:34:39;5.60;;;2.10;;
2390;SDS011;22957;50.824;4.360;2023-04-03T10:37:26;4.37;;;1.93;;
2390;SDS011;22957;50.824;4.360;2023-04-03T10:42:39;6.37;;;2.53;;
2390;SDS011;22957;50.824;4.360;2023-04-03T10:45:42;6.37;;;2.50;;
2390;SDS011;22957;50.824;4.360;2023-04-03T10:48:25;3.53;;;2.03;;
2390;SDS011;22957;50.824;4.360;2023-04-03T10:51:22;3.27;;;1.40;;
2390;SDS011;22957;50.824;4.360;2023-04-03T10:53:56;6.40;;;2.10;;
2390;SDS011;22957;50.824;4.360;2023-04-03T10:56:39;8.70;;;2.23;;
2390;SDS011;22957;50.824;4.360;2023-04-03T10:59:33;3.20;;;1.70;;
2390;SDS011;22957;50.824;4.360;2023-04-03T11:02:30;2.83;;;1.33;;
2390;SDS011;22957;50.824;4.360;2023-04-03T11:08:11;6.50;;;1.80;;
2390;SDS011;22957;50.824;4.360;2023-04-03T11:10:42;3.60;;;1.70;;
2390;SDS011;22957;50.824;4.360;2023-04-03T11:13:24;6.37;;;2.33;;
2390;SDS011;22957;50.824;4.360;2023-04-03T11:15:57;5.77;;;1.43;;
2390;SDS011;22957;50.824;4.360;2023-04-03T11:18:27;7.83;;;2.00;;
2390;SDS011;22957;50.824;4.360;2023-04-03T11:23:42;6.47;;;1.50;;
2390;SDS011;22957;50.824;4.360;2023-04-03T11:26:13;2.30;;;1.20;;
2390;SDS011;22957;50.824;4.360;2023-04-03T11:28:44;3.73;;;1.10;;
2390;SDS011;22957;50.824;4.360;2023-04-03T11:37:01;2.80;;;1.20;;
2390;SDS011;22957;50.824;4.360;2023-04-03T11:39:36;2.93;;;1.67;;
2390;SDS011;22957;50.824;4.360;2023-04-03T11:42:22;2.70;;;1.33;;
2390;SDS011;22957;50.824;4.360;2023-04-03T11:44:50;3.93;;;1.37;;
2390;SDS011;22957;50.824;4.360;2023-04-03T11:53:03;5.80;;;1.60;;
2390;SDS011;22957;50.824;4.360;2023-04-03T11:55:54;2.40;;;1.30;;
2390;SDS011;22957;50.824;4.360;2023-04-03T12:11:21;2.83;;;1.20;;
2390;SDS011;22957;50.824;4.360;2023-04-03T12:21:20;2.43;;;1.53;;
2390;SDS011;22957;50.824;4.360;2023-04-03T12:35:24;3.63;;;1.40;;
2390;SDS011;22957;50.824;4.360;2023-04-03T12:41:24;2.57;;;1.00;;
2390;SDS011;22957;50.824;4.360;2023-04-03T12:46:49;5.03;;;1.13;;
2390;SDS011;22957;50.824;4.360;2023-04-03T12:51:54;3.53;;;1.23;;
2390;SDS011;22957;50.824;4.360;2023-04-03T12:54:29;4.53;;;1.40;;
2390;SDS011;22957;50.824;4.360;2023-04-03T12:59:52;2.00;;;1.03;;
2390;SDS011;22957;50.824;4.360;2023-04-03T13:02:28;2.90;;;1.20;;
2390;SDS011;22957;50.824;4.360;2023-04-03T13:05:06;16.70;;;1.43;;
2390;SDS011;22957;50.824;4.360;2023-04-03T13:07:34;4.00;;;1.30;;
2390;SDS011;22957;50.824;4.360;2023-04-03T13:12:32;5.20;;;1.10;;
2390;SDS011;22957;50.824;4.360;2023-04-03T13:15:01;3.63;;;1.60;;
2390;SDS011;22957;50.824;4.360;2023-04-03T13:17:41;4.77;;;1.40;;
2390;SDS011;22957;50.824;4.360;2023-04-03T13:20:27;3.63;;;1.20;;
2390;SDS011;22957;50.824;4.360;2023-04-03T13:25:26;2.80;;;1.23;;
2390;SDS011;22957;50.824;4.360;2023-04-03T13:27:56;4.13;;;1.20;;
2390;SDS011;22957;50.824;4.360;2023-04-03T13:30:25;2.33;;;1.20;;
2390;SDS011;22957;50.824;4.360;2023-04-03T13:32:54;3.23;;;1.27;;
2390;SDS011;22957;50.824;4.360;2023-04-03T13:35:28;3.00;;;1.10;;
2390;SDS011;22957;50.824;4.360;2023-04-03T13:38:05;3.53;;;1.20;;
2390;SDS011;22957;50.824;4.360;2023-04-03T13:40:47;5.00;;;1.40;;
2390;SDS011;22957;50.824;4.360;2023-04-03T13:43:23;3.40;;;1.10;;
2390;SDS011;22957;50.824;4.360;2023-04-03T13:48:36;4.90;;;1.60;;
2390;SDS011;22957;50.824;4.360;2023-04-03T13:53:45;3.80;;;1.80;;
2390;SDS011;22957;50.824;4.360;2023-04-03T13:56:27;2.63;;;1.10;;
2390;SDS011;22957;50.824;4.360;2023-04-03T14:01:41;2.47;;;1.23;;
2390;SDS011;22957;50.824;4.360;2023-04-03T14:04:12;4.33;;;1.30;;
2390;SDS011;22957;50.824;4.360;2023-04-03T14:06:42;2.90;;;1.47;;
2390;SDS011;22957;50.824;4.360;2023-04-03T14:09:08;2.57;;;1.23;;
2390;SDS011;22957;50.824;4.360;2023-04-03T14:11:35;2.50;;;1.13;;
2390;SDS011;22957;50.824;4.360;2023-04-03T14:14:02;6.80;;;1.30;;
2390;SDS011;22957;50.824;4.360;2023-04-03T14:16:32;3.17;;;1.20;;
2390;SDS011;22957;50.824;4.360;2023-04-03T14:19:02;5.47;;;1.57;;
2390;SDS011;22957;50.824;4.360;2023-04-03T14:21:28;4.10;;;1.30;;
2390;SDS011;22957;50.824;4.360;2023-04-03T14:23:54;2.77;;;1.37;;
2390;SDS011;22957;50.824;4.360;2023-04-03T14:26:20;3.00;;;1.10;;
2390;SDS011;22957;50.824;4.360;2023-04-03T14:28:48;4.07;;;1.17;;
2390;SDS011;22957;50.824;4.360;2023-04-03T14:31:18;6.00;;;2.10;;
2390;SDS011;22957;50.824;4.360;2023-04-03T14:33:45;2.30;;;1.27;;
2390;SDS011;22957;50.824;4.360;2023-04-03T14:36:13;3.83;;;1.30;;
2390;SDS011;22957;50.824;4.360;2023-04-03T14:38:45;3.20;;;1.17;;
2390;SDS011;22957;50.824;4.360;2023-04-03T14:41:16;2.37;;;1.40;;
2390;SDS011;22957;50.824;4.360;2023-04-03T14:43:44;3.63;;;1.20;;
2390;SDS011;22957;50.824;4.360;2023-04-03T14:46:15;8.40;;;1.50;;
2390;SDS011;22957;50.824;4.360;2023-04-03T14:49:03;4.33;;;1.30;;
2390;SDS011;22957;50.824;4.360;2023-04-03T14:51:38;3.33;;;1.37;;
2390;SDS011;22957;50.824;4.360;2023-04-03T14:54:12;2.17;;;1.10;;
2390;SDS011;22957;50.824;4.360;2023-04-03T14:56:40;1.67;;;1.10;;
2390;SDS011;22957;50.824;4.360;2023-04-03T14:59:08;4.30;;;1.27;;
2390;SDS011;22957;50.824;4.360;2023-04-03T15:01:36;3.10;;;1.20;;
2390;SDS011;22957;50.824;4.360;2023-04-03T15:04:12;4.03;;;1.10;;
2390;SDS011;22957;50.824;4.360;2023-04-03T15:06:43;2.50;;;1.00;;
2390;SDS011;22957;50.824;4.360;2023-04-03T15:09:15;2.50;;;1.40;;
2390;SDS011;22957;50.824;4.360;2023-04-03T15:11:44;1.90;;;1.20;;
2390;SDS011;22957;50.824;4.360;2023-04-03T15:14:10;3.27;;;1.30;;
2390;SDS011;22957;50.824;4.360;2023-04-03T15:16:36;2.50;;;0.93;;
2390;SDS011;22957;50.824;4.360;2023-04-03T15:19:02;2.30;;;1.07;;
2390;SDS011;22957;50.824;4.360;2023-04-03T15:21:27;2.10;;;1.07;;
2390;SDS011;22957;50.824;4.360;2023-04-03T15:23:53;1.57;;;1.10;;
2390;SDS011;22957;50.824;4.360;2023-04-03T15:26:19;4.90;;;1.07;;
2390;SDS011;22957;50.824;4.360;2023-04-03T15:28:45;2.10;;;1.03;;
2390;SDS011;22957;50.824;4.360;2023-04-03T15:31:11;2.83;;;1.10;;
2390;SDS011;22957;50.824;4.360;2023-04-03T15:33:39;2.80;;;1.27;;
2390;SDS011;22957;50.824;4.360;2023-04-03T15:36:05;4.23;;;1.87;;
2390;SDS011;22957;50.824;4.360;2023-04-03T15:38:31;2.23;;;1.40;;
2390;SDS011;22957;50.824;4.360;2023-04-03T15:40:57;3.43;;;1.17;;
2390;SDS011;22957;50.824;4.360;2023-04-03T15:43:23;2.60;;;1.20;;
2390;SDS011;22957;50.824;4.360;2023-04-03T15:45:49;3.00;;;1.13;;
2390;SDS011;22957;50.824;4.360;2023-04-03T15:48:15;4.07;;;1.10;;
2390;SDS011;22957;50.824;4.360;2023-04-03T15:50:43;3.10;;;1.20;;
2390;SDS011;22957;50.824;4.360;2023-04-03T15:53:09;2.30;;;1.40;;
2390;SDS011;22957;50.824;4.360;2023-04-03T15:55:36;4.50;;;1.53;;
2390;SDS011;22957;50.824;4.360;2023-04-03T15:58:02;1.50;;;1.20;;
2390;SDS011;22957;50.824;4.360;2023-04-03T16:00:29;5.13;;;1.43;;
2390;SDS011;22957;50.824;4.360;2023-04-03T16:03:00;2.73;;;1.97;;
2390;SDS011;22957;50.824;4.360;2023-04-03T16:05:29;2.50;;;1.33;;
2390;SDS011;22957;50.824;4.360;2023-04-03T16:07:56;5.30;;;1.60;;
2390;SDS011;22957;50.824;4.360;2023-04-03T16:10:24;6.03;;;1.73;;
2390;SDS011;22957;50.824;4.360;2023-04-03T16:12:50;4.60;;;1.23;;
2390;SDS011;22957;50.824;4.360;2023-04-03T16:15:15;3.40;;;1.50;;
2390;SDS011;22957;50.824;4.360;2023-04-03T16:17:41;3.87;;;1.80;;
2390;SDS011;22957;50.824;4.360;2023-04-03T16:20:09;4.83;;;1.70;;
2390;SDS011;22957;50.824;4.360;2023-04-03T16:22:37;2.23;;;1.43;;
2390;SDS011;22957;50.824;4.360;2023-04-03T16:25:05;2.63;;;1.23;;
2390;SDS011;22957;50.824;4.360;2023-04-03T16:27:31;2.07;;;1.20;;
2390;SDS011;22957;50.824;4.360;2023-04-03T16:29:57;4.70;;;1.60;;
2390;SDS011;22957;50.824;4.360;2023-04-03T16:32:23;4.70;;;1.40;;
2390;SDS011;22957;50.824;4.360;2023-04-03T16:34:52;5.37;;;1.23;;
2390;SDS011;22957;50.824;4.360;2023-04-03T16:37:19;5.00;;;1.93;;
2390;SDS011;22957;50.824;4.360;2023-04-03T16:39:45;3.57;;;1.83;;
2390;SDS011;22957;50.824;4.360;2023-04-03T16:42:10;2.50;;;1.30;;
2390;SDS011;22957;50.824;4.360;2023-04-03T16:44:36;3.90;;;1.83;;
2390;SDS011;22957;50.824;4.360;2023-04-03T16:47:02;6.20;;;1.70;;
2390;SDS011;22957;50.824;4.360;2023-04-03T16:49:28;3.47;;;1.60;;
2390;SDS011;22957;50.824;4.360;2023-04-03T16:51:59;4.07;;;2.10;;
2390;SDS011;22957;50.824;4.360;2023-04-03T16:54:25;4.30;;;2.30;;
2390;SDS011;22957;50.824;4.360;2023-04-03T16:56:51;9.20;;;2.03;;
2390;SDS011;22957;50.824;4.360;2023-04-03T16:59:17;4.17;;;1.60;;